Time;durP1;ratioP1;P1;durP2;ratioP2;P2;SDS_P1;SDS_P2;PMS_P1;PMS_P2;Temp;Humidity;BMP_temperature;BMP_pressure;BME280_temperature;BME280_humidity;BME280_pressure;Samples;Min_cycle;Max_cycle;Signal;HPM_P1;HPM_P2
2023/03/15 00:01:54;;;;;;;1.97;0.90;;;;;;;18.47;45.90;100146.63;5108190;28;20411;-62
2023/03/15 00:04:20;;;;;;;7.63;1.60;;;;;;;18.39;46.47;100150.59;5104998;28;20270;-61
2023/03/15 00:06:45;;;;;;;2.90;0.70;;;;;;;18.30;46.91;100163.44;5104509;28;20178;-61
2023/03/15 00:09:11;;;;;;;1.50;0.70;;;;;;;18.26;47.16;100162.59;5110676;28;20484;-62
2023/03/15 00:11:36;;;;;;;1.93;0.80;;;;;;;18.18;47.33;100173.06;5107816;28;20270;-62
2023/03/15 00:14:02;;;;;;;3.93;1.10;;;;;;;18.13;47.76;100176.25;5108711;28;20185;-62
2023/03/15 00:16:28;;;;;;;4.10;0.80;;;;;;;18.08;47.95;100179.44;5109662;28;20235;-62
2023/03/15 00:18:54;;;;;;;3.40;0.87;;;;;;;18.05;48.17;100185.88;5109264;28;20443;-62
2023/03/15 00:21:20;;;;;;;3.20;0.93;;;;;;;18.04;48.65;100189.97;5110172;28;20208;-61
2023/03/15 00:23:45;;;;;;;3.40;0.80;;;;;;;18.01;48.70;100190.72;5109509;28;20540;-62
2023/03/15 00:26:11;;;;;;;2.40;0.97;;;;;;;17.97;48.85;100194.72;5109679;28;22435;-62
2023/03/15 00:28:36;;;;;;;2.20;0.70;;;;;;;17.93;49.14;100200.38;5111731;28;20541;-61
2023/03/15 00:31:22;;;;;;;5.33;1.60;;;;;;;17.92;49.12;100197.88;5091256;28;20209;-62
2023/03/15 00:33:47;;;;;;;1.93;0.73;;;;;;;17.89;49.76;100199.47;5107613;28;20231;-62
2023/03/15 00:36:13;;;;;;;2.13;0.90;;;;;;;17.87;49.53;100209.63;5109971;28;20416;-62
2023/03/15 00:38:39;;;;;;;3.80;1.00;;;;;;;17.85;49.57;100221.41;5109923;28;20196;-62
2023/03/15 00:41:09;;;;;;;2.30;0.80;;;;;;;17.84;49.90;100207.50;5115602;27;20173;-62
2023/03/15 00:43:35;;;;;;;3.07;0.77;;;;;;;17.86;50.00;100214.50;5113434;28;20427;-62
2023/03/15 00:46:00;;;;;;;6.27;0.97;;;;;;;17.86;50.31;100223.06;5113375;28;20408;-61
2023/03/15 00:48:26;;;;;;;1.80;0.93;;;;;;;17.86;49.89;100222.25;5112539;28;20185;-61
2023/03/15 00:51:00;;;;;;;2.73;0.87;;;;;;;17.89;49.92;100222.31;5113107;27;20186;-62
2023/03/15 00:53:25;;;;;;;2.90;0.70;;;;;;;17.88;49.96;100228.41;5111985;28;21068;-61
2023/03/15 00:55:50;;;;;;;2.07;0.80;;;;;;;17.80;50.52;100230.28;5112649;28;20513;-61
2023/03/15 00:58:16;;;;;;;2.70;0.70;;;;;;;17.79;50.99;100231.50;5113303;27;20188;-62
2023/03/15 01:00:41;;;;;;;2.60;0.90;;;;;;;17.79;50.92;100240.06;5113790;27;20208;-62
2023/03/15 01:03:07;;;;;;;1.60;0.60;;;;;;;17.79;50.67;100237.22;5112067;28;20205;-62
2023/03/15 01:05:32;;;;;;;2.17;1.00;;;;;;;17.79;50.86;100240.06;5112455;28;20197;-62
2023/03/15 01:07:57;;;;;;;1.97;0.60;;;;;;;17.77;50.99;100236.78;5112885;28;20212;-61
2023/03/15 01:10:23;;;;;;;2.73;0.83;;;;;;;17.78;50.87;100237.59;5112726;28;20636;-61
2023/03/15 01:12:48;;;;;;;2.17;0.70;;;;;;;17.77;51.22;100241.66;5111362;28;20226;-62
2023/03/15 01:15:14;;;;;;;1.63;0.80;;;;;;;17.78;51.21;100251.88;5111460;28;20196;-62
2023/03/15 01:17:40;;;;;;;2.47;0.80;;;;;;;17.75;51.06;100252.63;5112410;28;20219;-62
2023/03/15 01:20:06;;;;;;;1.60;0.70;;;;;;;17.77;51.08;100253.91;5111646;28;20184;-62
2023/03/15 01:22:32;;;;;;;2.60;0.83;;;;;;;17.76;51.32;100251.41;5112427;28;20176;-63
2023/03/15 01:24:57;;;;;;;1.90;0.70;;;;;;;17.75;51.54;100258.34;5113023;28;20419;-61
2023/03/15 01:27:23;;;;;;;2.90;0.90;;;;;;;17.75;51.10;100250.59;5112555;28;20182;-62
2023/03/15 01:29:48;;;;;;;3.10;1.20;;;;;;;17.71;51.60;100255.38;5113205;28;20166;-62
2023/03/15 01:32:13;;;;;;;2.83;0.67;;;;;;;17.70;51.55;100256.59;5115104;27;20213;-62
2023/03/15 01:34:39;;;;;;;2.27;0.73;;;;;;;17.71;51.83;100252.53;5112953;28;20166;-62
2023/03/15 01:37:05;;;;;;;3.73;0.77;;;;;;;17.72;51.73;100259.09;5112683;28;20177;-60
2023/03/15 01:39:30;;;;;;;1.70;0.80;;;;;;;17.70;52.03;100267.22;5112473;28;20629;-62
2023/03/15 01:41:55;;;;;;;2.10;0.80;;;;;;;17.69;51.87;100266.38;5112888;28;20169;-62
2023/03/15 01:44:22;;;;;;;2.10;0.80;;;;;;;17.69;51.53;100274.09;5112197;28;20185;-62
2023/03/15 01:46:48;;;;;;;3.23;0.80;;;;;;;17.69;51.59;100279.81;5112761;28;20252;-62
2023/03/15 01:49:18;;;;;;;1.90;0.80;;;;;;;17.67;52.23;100285.91;5111809;28;20480;-61
2023/03/15 01:51:58;;;;;;;1.27;0.50;;;;;;;17.67;52.16;100280.22;5110315;28;20211;-61
2023/03/15 01:54:30;;;;;;;1.90;0.70;;;;;;;17.66;51.94;100286.28;5111666;28;20498;-61
2023/03/15 01:57:11;;;;;;;3.20;0.80;;;;;;;17.66;51.84;100286.28;5112374;28;20451;-61
2023/03/15 01:59:54;;;;;;;2.20;0.60;;;;;;;17.66;52.09;100286.28;5111333;28;20406;-61
2023/03/15 02:02:21;;;;;;;3.33;0.70;;;;;;;17.65;51.86;100288.31;5110090;27;20415;-61
2023/03/15 02:04:50;;;;;;;1.97;0.70;;;;;;;17.64;52.40;100295.22;5103028;28;20471;-61
2023/03/15 02:07:16;;;;;;;2.53;0.87;;;;;;;17.57;52.51;100297.94;5091188;28;20770;-61
2023/03/15 02:09:43;;;;;;;1.40;0.80;;;;;;;17.58;52.40;100302.44;5073025;28;20419;-61
2023/03/15 02:12:09;;;;;;;2.20;0.90;;;;;;;17.60;52.01;100305.72;5084476;28;20259;-61
2023/03/15 02:14:35;;;;;;;2.50;0.80;;;;;;;17.58;52.06;100302.44;5111274;28;20879;-61
2023/03/15 02:17:00;;;;;;;3.33;1.10;;;;;;;17.58;52.04;100310.16;5110980;28;20423;-61
2023/03/15 02:20:16;;;;;;;2.37;0.90;;;;;;;17.57;52.28;100306.50;5111944;28;20602;-61
2023/03/15 02:23:00;;;;;;;2.67;0.90;;;;;;;17.58;52.35;100311.00;5048148;28;20198;-62
2023/03/15 02:25:51;;;;;;;1.60;0.83;;;;;;;17.62;52.43;100308.22;5111873;28;20407;-61
2023/03/15 02:28:17;;;;;;;1.50;0.70;;;;;;;17.64;52.12;100311.50;5087510;28;20808;-61
2023/03/15 02:30:43;;;;;;;2.27;0.63;;;;;;;17.61;52.33;100310.22;5113117;27;20415;-62
2023/03/15 02:33:16;;;;;;;1.97;0.80;;;;;;;17.58;52.66;100310.16;5112014;28;20174;-61
2023/03/15 02:35:42;;;;;;;3.60;1.00;;;;;;;17.60;52.43;100317.16;5109252;28;20185;-61
2023/03/15 02:38:07;;;;;;;1.60;0.80;;;;;;;17.59;52.28;100321.22;5111204;28;20929;-61
2023/03/15 02:40:54;;;;;;;3.03;0.80;;;;;;;17.57;52.92;100317.91;5111754;28;20181;-61
2023/03/15 02:43:23;;;;;;;2.17;1.13;;;;;;;17.60;52.94;100328.56;5115808;27;20216;-61
2023/03/15 02:45:49;;;;;;;1.53;0.70;;;;;;;17.60;53.14;100327.75;5125422;27;20475;-61
2023/03/15 02:48:14;;;;;;;2.20;0.70;;;;;;;17.59;52.96;100332.63;5110568;28;20396;-62
2023/03/15 02:50:40;;;;;;;4.40;1.20;;;;;;;17.57;52.53;100335.03;5109685;28;20253;-61
2023/03/15 02:53:05;;;;;;;2.50;0.70;;;;;;;17.59;53.07;100337.50;5111725;28;20166;-61
2023/03/15 02:55:31;;;;;;;2.13;0.80;;;;;;;17.59;52.96;100344.06;5110408;28;20243;-62
2023/03/15 02:57:57;;;;;;;1.50;0.60;;;;;;;17.55;53.41;100340.28;5111235;28;20184;-61
2023/03/15 03:00:23;;;;;;;1.50;0.80;;;;;;;17.54;53.30;100334.94;5111489;28;20177;-61
2023/03/15 03:02:48;;;;;;;1.70;0.70;;;;;;;17.53;53.06;100342.69;5111164;28;20461;-62
2023/03/15 03:05:14;;;;;;;2.43;0.80;;;;;;;17.53;53.23;100345.56;5110350;27;20209;-62
2023/03/15 03:07:41;;;;;;;2.33;1.20;;;;;;;17.53;52.90;100345.56;5111162;28;20177;-61
2023/03/15 03:10:08;;;;;;;2.83;0.70;;;;;;;17.54;53.11;100347.19;5111189;28;20602;-61
2023/03/15 03:12:33;;;;;;;2.40;0.80;;;;;;;17.49;53.24;100344.63;5110401;28;20483;-61
2023/03/15 03:14:58;;;;;;;2.00;0.77;;;;;;;17.51;52.95;100349.97;5110102;28;20443;-61
2023/03/15 03:17:24;;;;;;;1.60;0.70;;;;;;;17.52;52.81;100352.47;5110984;28;20181;-62
2023/03/15 03:19:50;;;;;;;2.27;0.90;;;;;;;17.53;52.81;100350.41;5107552;28;20715;-62
2023/03/15 03:22:16;;;;;;;1.93;0.73;;;;;;;17.52;53.25;100349.59;5110071;28;20162;-61
2023/03/15 03:24:44;;;;;;;1.70;0.70;;;;;;;17.54;52.89;100357.78;5111175;27;20463;-60
2023/03/15 03:27:16;;;;;;;1.93;0.80;;;;;;;17.51;53.02;100356.50;5110068;27;20625;-61
2023/03/15 03:29:41;;;;;;;1.90;0.83;;;;;;;17.46;53.58;100362.50;5109947;28;20466;-61
2023/03/15 03:32:07;;;;;;;1.50;0.70;;;;;;;17.50;53.43;100363.41;5109111;28;21030;-61
2023/03/15 03:34:33;;;;;;;1.70;0.70;;;;;;;17.48;53.21;100368.69;5110648;28;20189;-61
2023/03/15 03:36:58;;;;;;;1.40;0.60;;;;;;;17.49;53.21;100366.63;5109459;28;20166;-61
2023/03/15 03:39:24;;;;;;;3.10;0.70;;;;;;;17.49;53.35;100369.47;5109355;28;20649;-61
2023/03/15 03:41:49;;;;;;;2.10;0.80;;;;;;;17.46;53.08;100373.91;5110125;28;20549;-61
2023/03/15 03:44:15;;;;;;;1.60;0.87;;;;;;;17.53;52.95;100384.66;5110798;28;20239;-61
2023/03/15 03:46:40;;;;;;;1.37;0.50;;;;;;;17.54;52.61;100374.91;5109791;28;20712;-61
2023/03/15 03:49:06;;;;;;;2.27;0.70;;;;;;;17.50;52.74;100380.53;5110534;28;20762;-61
2023/03/15 03:51:32;;;;;;;1.60;0.60;;;;;;;17.55;53.01;100377.38;5109527;28;20197;-61
2023/03/15 03:53:58;;;;;;;1.70;0.70;;;;;;;17.52;52.86;100378.16;5110520;28;20276;-61
2023/03/15 03:56:24;;;;;;;1.50;0.60;;;;;;;17.47;53.16;100384.16;5112909;27;20498;-61
2023/03/15 03:58:49;;;;;;;2.90;0.77;;;;;;;17.52;53.04;100375.31;5109406;28;20193;-61
2023/03/15 04:01:15;;;;;;;1.30;0.60;;;;;;;17.55;52.88;100379.44;5109920;28;20688;-61
2023/03/15 04:03:40;;;;;;;1.60;0.70;;;;;;;17.52;53.24;100391.59;5110283;28;20189;-61
2023/03/15 04:06:06;;;;;;;1.70;0.70;;;;;;;17.48;53.25;100388.66;5110031;28;20190;-61
2023/03/15 04:08:31;;;;;;;2.03;0.83;;;;;;;17.48;53.70;100391.50;5109250;28;20262;-61
2023/03/15 04:10:57;;;;;;;1.77;0.70;;;;;;;17.44;53.64;100404.84;5104765;28;20210;-61
2023/03/15 04:13:23;;;;;;;1.80;0.90;;;;;;;17.49;53.16;100396.00;5108745;28;20236;-61
2023/03/15 04:15:48;;;;;;;1.90;0.83;;;;;;;17.47;53.69;100403.28;5108717;28;20174;-61
2023/03/15 04:18:14;;;;;;;1.70;0.60;;;;;;;17.47;53.50;100403.28;5108602;28;20419;-61
2023/03/15 04:20:45;;;;;;;2.87;0.93;;;;;;;17.44;53.45;100404.84;5110287;28;20193;-61
2023/03/15 04:23:14;;;;;;;2.17;0.70;;;;;;;17.46;53.67;100407.34;5127201;27;20165;-62
2023/03/15 04:25:40;;;;;;;1.40;0.70;;;;;;;17.45;53.41;100412.22;5116045;27;20538;-61
2023/03/15 04:28:09;;;;;;;1.50;0.70;;;;;;;17.41;54.06;100416.19;5110019;28;20782;-61
2023/03/15 04:30:35;;;;;;;2.80;0.73;;;;;;;17.41;53.66;100416.19;5109757;28;20869;-61
2023/03/15 04:33:02;;;;;;;1.97;0.83;;;;;;;17.41;53.84;100410.50;5109952;28;20411;-61
2023/03/15 04:35:29;;;;;;;2.00;0.67;;;;;;;17.38;53.65;100417.72;5107813;28;20725;-61
2023/03/15 04:37:55;;;;;;;1.87;0.73;;;;;;;17.38;53.79;100426.28;5109771;28;20455;-62
2023/03/15 04:40:22;;;;;;;2.07;0.70;;;;;;;17.40;53.58;100418.22;5109014;28;20478;-61
2023/03/15 04:42:49;;;;;;;1.90;0.83;;;;;;;17.39;53.96;100424.28;5108865;28;20419;-61
2023/03/15 04:45:15;;;;;;;2.10;0.90;;;;;;;17.36;53.88;100427.88;5111032;28;20465;-61
2023/03/15 04:47:40;;;;;;;1.70;0.80;;;;;;;17.36;53.91;100422.97;5108544;28;20894;-61
2023/03/15 04:50:06;;;;;;;1.80;0.80;;;;;;;17.39;53.79;100425.13;5108856;28;20162;-61
2023/03/15 04:52:32;;;;;;;1.60;0.70;;;;;;;17.39;53.45;100427.97;5107820;28;20206;-61
2023/03/15 04:54:57;;;;;;;2.10;0.90;;;;;;;17.40;53.78;100432.47;5106532;28;20420;-61
2023/03/15 04:57:22;;;;;;;2.07;0.70;;;;;;;17.36;53.67;100425.81;5108351;28;20174;-61
2023/03/15 04:59:48;;;;;;;1.70;0.70;;;;;;;17.34;53.76;100428.22;5109468;28;20177;-61
2023/03/15 05:02:13;;;;;;;1.60;0.70;;;;;;;17.40;53.89;100423.91;5109622;28;20167;-61
2023/03/15 05:04:39;;;;;;;1.67;0.70;;;;;;;17.38;53.71;100420.59;5108904;28;20678;-61
2023/03/15 05:07:04;;;;;;;2.50;0.80;;;;;;;17.41;53.47;100425.56;5109470;28;20173;-62
2023/03/15 05:09:36;;;;;;;1.60;0.60;;;;;;;17.41;53.38;100428.41;5108797;28;20189;-61
2023/03/15 05:12:05;;;;;;;1.67;0.53;;;;;;;17.42;53.49;100423.56;5099720;28;20226;-61
2023/03/15 05:14:31;;;;;;;1.87;0.73;;;;;;;17.42;53.16;100424.41;5110130;28;20415;-61
2023/03/15 05:16:58;;;;;;;2.27;0.70;;;;;;;17.44;53.40;100426.84;5107501;28;20445;-61
2023/03/15 05:19:24;;;;;;;1.80;0.70;;;;;;;17.42;53.44;100429.25;5108317;28;20918;-61
2023/03/15 05:21:50;;;;;;;1.83;0.70;;;;;;;17.42;53.22;100427.25;5109217;28;20404;-62
2023/03/15 05:24:15;;;;;;;1.90;0.80;;;;;;;17.46;53.23;100419.56;5108837;28;20450;-62
2023/03/15 05:26:41;;;;;;;1.50;0.70;;;;;;;17.49;53.46;100429.41;5113089;27;20162;-62
2023/03/15 05:29:06;;;;;;;1.40;0.67;;;;;;;17.42;54.07;100424.41;5113075;28;20185;-61
2023/03/15 05:31:35;;;;;;;1.70;0.73;;;;;;;17.44;53.70;100421.97;5112930;28;20194;-60
2023/03/15 05:34:03;;;;;;;2.57;1.00;;;;;;;17.42;53.62;100427.25;5113053;27;20272;-61
2023/03/15 05:36:32;;;;;;;1.90;0.70;;;;;;;17.44;53.15;100421.97;5114395;27;20502;-61
2023/03/15 05:38:57;;;;;;;2.50;0.80;;;;;;;17.43;53.71;100426.03;5112175;28;20476;-61
2023/03/15 05:41:23;;;;;;;1.60;0.60;;;;;;;17.43;53.40;100426.03;5113057;28;20423;-61
2023/03/15 05:43:49;;;;;;;1.80;0.80;;;;;;;17.42;53.74;100438.66;5112461;28;20633;-61
2023/03/15 05:46:15;;;;;;;2.33;0.80;;;;;;;17.39;54.10;100439.38;5109565;28;20188;-62
2023/03/15 05:48:40;;;;;;;1.67;0.77;;;;;;;17.40;53.65;100434.53;5111410;28;20443;-61
2023/03/15 05:51:05;;;;;;;1.40;0.60;;;;;;;17.39;53.69;100438.56;5110911;27;20221;-59
2023/03/15 05:53:31;;;;;;;2.17;0.60;;;;;;;17.36;53.91;100436.41;5115037;27;20181;-61
2023/03/15 05:55:56;;;;;;;1.60;0.67;;;;;;;17.38;54.13;100442.56;5112652;28;20199;-61
2023/03/15 05:58:22;;;;;;;1.50;0.70;;;;;;;17.39;54.03;100435.69;5112632;28;20170;-61
2023/03/15 06:00:48;;;;;;;1.60;0.73;;;;;;;17.36;54.13;100440.09;5111198;28;20188;-61
2023/03/15 06:03:14;;;;;;;1.77;0.90;;;;;;;17.33;54.17;100437.16;5111365;28;20187;-62
2023/03/15 06:05:40;;;;;;;1.80;0.80;;;;;;;17.31;54.16;100443.22;5107992;28;20466;-62
2023/03/15 06:08:05;;;;;;;4.13;0.90;;;;;;;17.35;54.05;100449.84;5111903;27;20443;-62
2023/03/15 06:10:31;;;;;;;1.90;0.93;;;;;;;17.33;53.99;100449.41;5110453;28;20158;-62
2023/03/15 06:12:56;;;;;;;2.23;0.70;;;;;;;17.33;53.67;100443.69;5111300;28;20233;-62
2023/03/15 06:15:21;;;;;;;1.90;0.80;;;;;;;17.38;54.07;100451.97;5108263;28;20235;-61
2023/03/15 06:17:47;;;;;;;1.50;0.90;;;;;;;17.35;53.92;100455.56;5119269;27;20184;-62
2023/03/15 06:20:13;;;;;;;2.13;0.80;;;;;;;17.31;54.20;100451.78;5119406;27;20193;-62
2023/03/15 06:22:41;;;;;;;1.73;1.00;;;;;;;17.34;54.22;100453.91;5110073;28;20178;-61
2023/03/15 06:25:07;;;;;;;2.07;0.90;;;;;;;17.33;54.13;100460.81;5105288;28;20234;-61
2023/03/15 06:27:32;;;;;;;1.77;0.80;;;;;;;17.36;53.61;100462.91;5109825;28;20435;-62
2023/03/15 06:29:58;;;;;;;2.53;0.70;;;;;;;17.38;53.68;100466.25;5111091;28;20412;-62
2023/03/15 06:32:23;;;;;;;2.03;0.90;;;;;;;17.47;53.07;100461.22;5111128;28;20276;-61
2023/03/15 06:34:49;;;;;;;2.27;0.90;;;;;;;17.36;53.57;100471.47;5111594;28;20194;-62
2023/03/15 06:37:14;;;;;;;1.63;0.87;;;;;;;17.37;53.60;100472.31;5110093;28;20177;-62
2023/03/15 06:39:40;;;;;;;1.33;0.70;;;;;;;17.37;53.29;100469.47;5107914;28;20637;-62
2023/03/15 06:42:07;;;;;;;1.80;0.70;;;;;;;17.38;53.62;100471.94;5112334;28;20190;-61
2023/03/15 06:44:33;;;;;;;1.60;0.70;;;;;;;17.38;53.24;100480.50;5109229;28;21002;-60
2023/03/15 06:46:59;;;;;;;3.93;1.07;;;;;;;17.26;51.45;100488.34;5109761;28;21119;-57
2023/03/15 06:49:24;;;;;;;7.17;2.27;;;;;;;17.03;50.53;100501.56;5101818;28;20431;-58
2023/03/15 06:51:50;;;;;;;5.70;2.30;;;;;;;17.09;49.84;100500.94;5108782;28;20233;-59
2023/03/15 06:54:15;;;;;;;11.00;4.00;;;;;;;17.37;49.26;100504.53;5107885;28;20743;-58
2023/03/15 06:56:41;;;;;;;12.13;3.20;;;;;;;17.46;45.86;100493.78;5105232;28;20701;-58
2023/03/15 06:59:06;;;;;;;5.37;2.80;;;;;;;17.50;42.04;100500.41;5107280;28;20274;-59
2023/03/15 07:01:32;;;;;;;9.17;3.23;;;;;;;17.76;40.44;100497.00;5105213;28;20746;-59
2023/03/15 07:03:57;;;;;;;5.10;2.50;;;;;;;17.98;40.88;100499.16;5106870;28;20201;-59
2023/03/15 07:06:23;;;;;;;5.80;2.40;;;;;;;18.10;41.33;100502.69;5106437;28;20246;-59
2023/03/15 07:08:48;;;;;;;9.10;2.20;;;;;;;18.36;41.62;100500.06;5105195;28;20236;-59
2023/03/15 07:11:13;;;;;;;7.90;2.40;;;;;;;18.19;41.98;100506.19;5104744;28;20254;-59
2023/03/15 07:13:39;;;;;;;6.80;2.00;;;;;;;18.57;42.34;100506.22;5108426;28;20233;-59
2023/03/15 07:16:05;;;;;;;6.60;1.97;;;;;;;18.71;42.31;100506.53;5103278;28;20182;-59
2023/03/15 07:18:32;;;;;;;7.97;1.97;;;;;;;18.75;42.52;100507.44;5108810;28;20185;-59
2023/03/15 07:20:58;;;;;;;7.63;2.30;;;;;;;18.74;42.29;100507.81;5109029;28;20165;-59
2023/03/15 07:23:24;;;;;;;7.43;2.13;;;;;;;18.58;42.46;100505.03;5107707;28;20435;-59
2023/03/15 07:25:49;;;;;;;7.30;1.93;;;;;;;18.35;42.86;100509.00;5088312;28;20537;-59
2023/03/15 07:28:14;;;;;;;4.30;2.27;;;;;;;18.35;43.42;100509.84;5102253;28;20173;-57
2023/03/15 07:30:40;;;;;;;6.57;2.23;;;;;;;18.40;43.04;100511.56;5106594;28;20237;-58
2023/03/15 07:33:05;;;;;;;5.83;2.17;;;;;;;18.22;43.74;100505.41;5107247;28;20197;-59
2023/03/15 07:35:31;;;;;;;6.97;2.10;;;;;;;18.23;43.80;100506.25;5098793;27;20267;-58
2023/03/15 07:37:56;;;;;;;14.10;2.23;;;;;;;18.23;44.24;100511.97;5100311;28;20166;-59
2023/03/15 07:40:22;;;;;;;3.80;2.10;;;;;;;18.20;44.71;100516.41;5106709;28;20185;-59
2023/03/15 07:42:47;;;;;;;6.93;1.83;;;;;;;18.04;44.78;100527.06;5107689;28;20234;-58
2023/03/15 07:45:13;;;;;;;10.17;2.03;;;;;;;18.05;44.72;100516.44;5098139;28;20260;-59
2023/03/15 07:47:38;;;;;;;6.20;2.07;;;;;;;17.96;44.88;100512.97;5105579;28;20193;-59
2023/03/15 07:50:04;;;;;;;7.23;2.20;;;;;;;17.92;45.44;100518.63;5106884;28;20174;-59
2023/03/15 07:52:30;;;;;;;6.63;1.93;;;;;;;17.86;45.29;100525.78;5105458;28;20885;-59
2023/03/15 07:54:56;;;;;;;7.60;2.20;;;;;;;17.79;46.23;100525.63;5092801;28;20441;-58
2023/03/15 07:57:21;;;;;;;5.00;2.40;;;;;;;17.78;44.87;100528.84;5096066;28;20173;-58
2023/03/15 07:59:46;;;;;;;11.27;2.13;;;;;;;17.81;44.20;100523.22;5107433;28;20185;-58
2023/03/15 08:02:12;;;;;;;5.87;1.77;;;;;;;17.88;43.59;100522.56;5106928;27;20181;-58
2023/03/15 08:04:38;;;;;;;7.50;2.27;;;;;;;17.86;43.38;100520.06;5106909;28;20240;-58
2023/03/15 08:07:03;;;;;;;7.20;2.30;;;;;;;17.79;44.54;100519.06;5107631;28;20334;-59
2023/03/15 08:09:31;;;;;;;4.53;2.10;;;;;;;17.78;44.36;100528.84;5106687;28;20578;-58
2023/03/15 08:11:57;;;;;;;8.67;2.37;;;;;;;17.77;47.15;100532.91;5105166;28;20238;-59
2023/03/15 08:14:23;;;;;;;8.83;2.63;;;;;;;17.78;47.06;100518.25;5099827;28;20443;-57
2023/03/15 08:16:49;;;;;;;8.00;2.30;;;;;;;17.76;47.54;100511.28;5108880;28;20702;-57
2023/03/15 08:19:15;;;;;;;17.47;2.87;;;;;;;17.78;47.50;100512.56;5108460;28;20407;-56
2023/03/15 08:21:44;;;;;;;10.20;2.33;;;;;;;17.78;47.62;100515.41;5111842;27;20424;-56
2023/03/15 08:24:10;;;;;;;4.97;1.60;;;;;;;17.77;48.26;100516.63;5109104;28;20158;-56
2023/03/15 08:26:35;;;;;;;6.13;1.77;;;;;;;17.75;48.39;100524.69;5107956;28;20454;-57
2023/03/15 08:29:01;;;;;;;9.47;2.50;;;;;;;17.75;48.38;100527.56;5108694;28;20484;-57
2023/03/15 08:31:26;;;;;;;12.77;1.90;;;;;;;17.73;48.60;100526.28;5108757;28;20209;-58
2023/03/15 08:33:52;;;;;;;7.83;1.87;;;;;;;17.70;48.67;100519.28;5111802;28;20180;-56
2023/03/15 08:36:18;;;;;;;5.37;1.80;;;;;;;17.70;48.68;100527.03;5109361;28;20258;-56
2023/03/15 08:38:43;;;;;;;5.17;2.13;;;;;;;17.69;48.87;100531.06;5108534;28;20190;-57
2023/03/15 08:41:08;;;;;;;9.27;3.17;;;;;;;17.67;49.16;100522.88;5109241;28;20188;-56
2023/03/15 08:43:34;;;;;;;9.60;1.70;;;;;;;17.69;49.31;100526.19;5108733;28;20189;-56
2023/03/15 08:45:59;;;;;;;5.03;2.27;;;;;;;17.65;49.48;100528.13;5109073;28;20185;-57
2023/03/15 08:48:25;;;;;;;4.60;1.70;;;;;;;17.66;49.55;100523.25;5108657;28;20264;-56
2023/03/15 08:50:50;;;;;;;6.67;1.83;;;;;;;17.64;49.60;100528.50;5107411;28;20196;-57
2023/03/15 08:53:16;;;;;;;7.00;1.40;;;;;;;17.62;49.87;100531.72;5108921;28;20181;-57
2023/03/15 08:55:41;;;;;;;6.60;1.90;;;;;;;17.61;50.13;100541.47;5107981;28;20174;-56
2023/03/15 08:58:06;;;;;;;9.70;2.37;;;;;;;17.62;50.18;100548.88;5108983;28;20158;-56
2023/03/15 09:00:32;;;;;;;5.47;1.80;;;;;;;17.62;50.21;100545.16;5109874;28;20263;-57
2023/03/15 09:02:57;;;;;;;7.90;1.80;;;;;;;17.58;50.20;100550.78;5113327;28;20709;-56
2023/03/15 09:05:23;;;;;;;9.00;2.10;;;;;;;17.58;50.31;100547.94;5113441;28;20189;-56
2023/03/15 09:07:49;;;;;;;4.60;1.50;;;;;;;17.59;50.62;100560.16;5113036;28;20200;-56
2023/03/15 09:10:15;;;;;;;3.47;1.40;;;;;;;17.57;50.62;100552.00;5113545;28;20182;-56
2023/03/15 09:12:45;;;;;;;5.23;1.77;;;;;;;17.55;50.90;100557.22;5112580;28;20249;-56
2023/03/15 09:15:10;;;;;;;3.03;1.33;;;;;;;17.55;50.56;100554.38;5092768;28;20400;-56
2023/03/15 09:17:37;;;;;;;6.50;1.80;;;;;;;17.56;50.59;100558.06;5092905;28;20389;-57
2023/03/15 09:20:10;;;;;;;4.17;1.73;;;;;;;17.56;50.68;100550.31;5110770;28;20181;-56
2023/03/15 09:22:35;;;;;;;4.90;2.03;;;;;;;17.54;50.94;100552.72;5111030;28;20446;-56
2023/03/15 09:25:01;;;;;;;7.40;1.87;;;;;;;17.55;50.95;100562.94;5111405;28;20439;-57
2023/03/15 09:27:29;;;;;;;8.07;1.70;;;;;;;17.63;50.92;100566.81;5112171;27;20162;-57
2023/03/15 09:29:54;;;;;;;4.43;1.80;;;;;;;17.67;50.56;100565.72;5110451;28;20260;-57
2023/03/15 09:32:20;;;;;;;5.33;1.77;;;;;;;17.63;51.08;100570.50;5111396;28;20471;-56
2023/03/15 09:34:46;;;;;;;4.40;1.27;;;;;;;17.64;51.07;100569.28;5111911;28;20162;-57
2023/03/15 09:37:11;;;;;;;3.03;1.50;;;;;;;17.64;50.65;100569.28;5110813;28;20802;-56
2023/03/15 09:39:36;;;;;;;6.73;1.47;;;;;;;17.62;50.98;100566.00;5113065;28;20535;-57
2023/03/15 09:42:03;;;;;;;4.67;1.67;;;;;;;17.69;50.91;100559.63;5120346;27;20198;-56
2023/03/15 09:44:50;;;;;;;7.00;1.63;;;;;;;17.69;51.32;100560.47;5094049;28;20220;-56
2023/03/15 09:47:31;;;;;;;3.57;1.30;;;;;;;17.68;51.08;100563.69;5112546;28;20412;-57
2023/03/15 09:50:19;;;;;;;5.30;1.93;;;;;;;17.67;51.29;100564.88;5112110;28;20832;-57
2023/03/15 09:53:03;;;;;;;7.27;1.80;;;;;;;17.67;51.32;100571.44;5099345;28;20459;-57
2023/03/15 09:55:29;;;;;;;5.10;1.50;;;;;;;17.68;51.15;100575.09;5102084;28;20510;-57
2023/03/15 09:58:09;;;;;;;4.00;1.20;;;;;;;17.65;51.59;100573.00;5112760;28;20400;-58
2023/03/15 10:00:46;;;;;;;3.17;1.20;;;;;;;17.63;51.68;100581.91;5110131;28;21071;-58
2023/03/15 10:03:30;;;;;;;4.30;1.87;;;;;;;17.63;51.57;100581.91;5098884;28;20400;-58
2023/03/15 10:05:59;;;;;;;4.30;1.57;;;;;;;17.62;51.49;100576.56;5110801;27;20516;-58
2023/03/15 10:08:25;;;;;;;6.23;1.33;;;;;;;17.61;51.60;100569.22;5111280;28;20491;-57
2023/03/15 10:11:03;;;;;;;3.97;1.23;;;;;;;17.60;52.03;100568.38;5110114;28;20435;-58
2023/03/15 10:13:51;;;;;;;3.00;1.17;;;;;;;17.59;51.74;100572.44;5110966;28;20471;-58
2023/03/15 10:16:36;;;;;;;3.67;1.37;;;;;;;17.61;52.06;100574.91;5109269;28;20506;-58
2023/03/15 10:19:40;;;;;;;2.67;1.77;;;;;;;17.58;51.98;100578.50;5111339;28;20387;-58
2023/03/15 10:22:11;;;;;;;4.77;1.63;;;;;;;17.62;51.85;100576.56;5108798;28;20431;-58
2023/03/15 10:24:48;;;;;;;4.13;1.40;;;;;;;17.59;52.44;100566.72;5113331;27;20399;-57
2023/03/15 10:27:20;;;;;;;2.13;1.13;;;;;;;17.57;52.33;100563.41;5091748;28;20412;-57
2023/03/15 10:29:49;;;;;;;3.70;1.50;;;;;;;17.61;52.08;100564.31;5111563;27;20414;-57
2023/03/15 10:32:16;;;;;;;4.23;1.87;;;;;;;17.63;52.12;100564.78;5109443;28;20443;-58
2023/03/15 10:34:44;;;;;;;3.90;1.10;;;;;;;17.62;52.49;100571.69;5111076;28;20971;-58
2023/03/15 10:37:10;;;;;;;7.10;1.27;;;;;;;17.60;52.32;100574.06;5109251;28;20949;-57
2023/03/15 10:39:35;;;;;;;5.80;1.33;;;;;;;17.60;52.32;100573.28;5110975;28;20404;-57
2023/03/15 10:42:01;;;;;;;3.63;1.67;;;;;;;17.63;52.28;100569.66;5111115;28;20170;-58
2023/03/15 10:44:26;;;;;;;3.43;1.37;;;;;;;17.62;52.12;100571.69;5091935;28;20633;-57
2023/03/15 10:47:11;;;;;;;5.40;1.53;;;;;;;17.64;52.22;100574.16;5110792;28;20261;-57
2023/03/15 10:49:38;;;;;;;6.07;1.50;;;;;;;17.64;52.17;100574.16;5110658;28;20201;-57
2023/03/15 10:52:03;;;;;;;4.83;1.33;;;;;;;17.64;52.11;100571.31;5111619;28;20463;-57
2023/03/15 10:54:31;;;;;;;3.23;1.13;;;;;;;17.64;52.21;100572.16;5111728;27;20770;-57
2023/03/15 10:56:57;;;;;;;4.17;1.37;;;;;;;17.69;51.79;100559.63;5111421;28;20696;-57
2023/03/15 10:59:23;;;;;;;8.87;2.07;;;;;;;17.62;52.12;100556.59;5110430;28;20463;-57
2023/03/15 11:01:53;;;;;;;6.50;1.77;;;;;;;17.68;51.75;100553.09;5110736;28;20439;-57
2023/03/15 11:04:23;;;;;;;4.57;1.67;;;;;;;17.71;51.59;100552.34;5111147;28;20965;-57
2023/03/15 11:06:54;;;;;;;3.47;1.47;;;;;;;17.64;52.30;100552.16;5109858;28;20505;-58
2023/03/15 11:09:26;;;;;;;4.00;1.43;;;;;;;17.67;52.43;100556.31;5110265;28;20515;-58
2023/03/15 11:12:00;;;;;;;4.97;1.20;;;;;;;17.63;52.49;100561.94;5108921;27;20482;-58
2023/03/15 11:14:33;;;;;;;6.17;1.20;;;;;;;17.68;52.40;100560.81;5110265;28;20416;-57
2023/03/15 11:16:59;;;;;;;4.90;1.10;;;;;;;17.68;52.38;100544.53;5091739;28;20861;-57
2023/03/15 11:19:26;;;;;;;4.10;1.20;;;;;;;17.68;52.33;100553.09;5108597;28;20469;-58
2023/03/15 11:21:52;;;;;;;4.23;1.53;;;;;;;17.71;52.27;100548.66;5110184;28;20412;-57
2023/03/15 11:24:30;;;;;;;8.87;1.30;;;;;;;17.71;52.43;100540.91;5074756;28;20420;-57
2023/03/15 11:27:00;;;;;;;2.87;1.10;;;;;;;17.69;52.25;100549.03;5110087;28;20181;-57